Aviation Digital Data Service (ADDS)

Output produced by METARs form (1437 UTC 10 December 2016)
found at http://www.aviationweather.gov/adds/metars/
 
KCRQ 101353Z AUTO 10004KT 4SM BR OVC012 13/12 A3016 RMK AO2 SLP210 T01330122
KCRQ 101253Z AUTO 03003KT 4SM BR OVC012 13/12 A3016 RMK AO2 SLP210 T01330122
KCRQ 101153Z AUTO 00000KT 4SM BR OVC011 13/12 A3014 RMK AO2 SLP206 T01330122 10156 20133 55009
KCRQ 101053Z AUTO 09004KT 5SM BR OVC011 14/13 A3014 RMK AO2 SLP204 T01390128
KCRQ 101132Z 1012/1112 VRB03KT 4SM BR OVC011 
     FM101800 24007KT P6SM SCT015 
     FM110100 VRB05KT P6SM BKN015